aviador You're here:

YCIN Decoded Metar

CURTIN/DERBY in _UNIDENTIFIED
Report Time2018-01-17 18:00:00
UTC Time2018-01-17 18:15:19
Flight Rules vfr VFR
WindCalm
Visibility9999 m
Phenomena:N/A
Clouds:N/A
CeilingNone
Temp26°C (ISA +12)
Dew Point26°C (100% RH)
QNH1004 hPa
Density Alt2,385 ft
Elevation299 ft
Report Wrong Elevation
Raw Report
METAR YCIN 171800Z AUTO 00000KT 9999 // NCD 26/26 Q1004=

Extra information for YCIN:More info

Metar Taf Metar & Taf Last 4 Metars F.Rules Stats Wind Profile Meteogram Temp Stats Airport Information Weather charts Add Link Nearby VenuesMetar ALERT Operation Metar Decoded Social comments